Terminal Aerodrome Forecast
Issued by NWS

Home | Current Version | Previous Version | Text Only | Print | Product List | Glossary Off
Versions: 1 2 3 4 5 6 7 8 9 10 11 12 13 14 15 16

000
FTUS45 KGGW 240415 AAB
TAFGDV
TAF AMD
KGDV 240415Z 2404/2424 07013KT P6SM BKN015 OVC080
     FM240600 08009KT P6SM VCSH OVC015
     FM241900 33008KT P6SM BKN025
     FM242300 02010KT P6SM BKN030=

USA.gov is the U.S. government's official web portal to all federal, state and local government web resources and services.